sensor_id;sensor_type;location;lat;lon;timestamp;pressure;altitude;pressure_sealevel;temperature;humidity
41632;BME280;37452;51.938;4.624;2023-02-01T00:01:59;78253.69;;;-142.75;100.00
41632;BME280;37452;51.938;4.624;2023-02-01T00:04:25;78245.81;;;-142.75;100.00
41632;BME280;37452;51.938;4.624;2023-02-01T00:06:50;78251.72;;;-142.75;100.00
41632;BME280;37452;51.938;4.624;2023-02-01T00:09:15;78239.91;;;-142.75;100.00
41632;BME280;37452;51.938;4.624;2023-02-01T00:11:41;78243.84;;;-142.75;100.00
41632;BME280;37452;51.938;4.624;2023-02-01T00:14:06;78259.59;;;-142.75;100.00
41632;BME280;37452;51.938;4.624;2023-02-01T00:16:33;78259.59;;;-142.75;100.00
41632;BME280;37452;51.938;4.624;2023-02-01T00:19:05;78253.69;;;-142.75;100.00
41632;BME280;37452;51.938;4.624;2023-02-01T00:21:31;78247.78;;;-142.75;100.00
41632;BME280;37452;51.938;4.624;2023-02-01T00:23:58;78247.78;;;-142.75;100.00
41632;BME280;37452;51.938;4.624;2023-02-01T00:26:33;78245.81;;;-142.75;100.00
41632;BME280;37452;51.938;4.624;2023-02-01T00:29:01;78263.53;;;-142.75;100.00
41632;BME280;37452;51.938;4.624;2023-02-01T00:31:27;78247.78;;;-142.75;100.00
41632;BME280;37452;51.938;4.624;2023-02-01T00:33:52;78239.91;;;-142.75;100.00
41632;BME280;37452;51.938;4.624;2023-02-01T00:36:17;78265.50;;;-142.75;100.00
41632;BME280;37452;51.938;4.624;2023-02-01T00:38:43;78261.56;;;-142.75;100.00
41632;BME280;37452;51.938;4.624;2023-02-01T00:41:17;78247.78;;;-142.75;100.00
41632;BME280;37452;51.938;4.624;2023-02-01T00:43:43;78247.78;;;-142.75;100.00
41632;BME280;37452;51.938;4.624;2023-02-01T00:46:10;78263.53;;;-142.75;100.00
41632;BME280;37452;51.938;4.624;2023-02-01T00:48:36;78255.66;;;-142.75;100.00
41632;BME280;37452;51.938;4.624;2023-02-01T00:51:05;78245.81;;;-142.75;100.00
41632;BME280;37452;51.938;4.624;2023-02-01T00:53:32;78235.97;;;-142.75;100.00
41632;BME280;37452;51.938;4.624;2023-02-01T00:55:58;78235.97;;;-142.75;100.00
41632;BME280;37452;51.938;4.624;2023-02-01T00:58:23;78239.91;;;-142.75;100.00
41632;BME280;37452;51.938;4.624;2023-02-01T01:01:04;78255.66;;;-142.75;100.00
41632;BME280;37452;51.938;4.624;2023-02-01T01:03:31;78241.88;;;-142.75;100.00
41632;BME280;37452;51.938;4.624;2023-02-01T01:05:59;78243.84;;;-142.75;100.00
41632;BME280;37452;51.938;4.624;2023-02-01T01:08:25;78224.16;;;-142.75;100.00
41632;BME280;37452;51.938;4.624;2023-02-01T01:10:51;78232.03;;;-142.75;100.00
41632;BME280;37452;51.938;4.624;2023-02-01T01:13:16;78235.97;;;-142.75;100.00
41632;BME280;37452;51.938;4.624;2023-02-01T01:15:41;78232.03;;;-142.75;100.00
41632;BME280;37452;51.938;4.624;2023-02-01T01:18:08;78234.00;;;-142.75;100.00
41632;BME280;37452;51.938;4.624;2023-02-01T01:20:35;78235.97;;;-142.75;100.00
41632;BME280;37452;51.938;4.624;2023-02-01T01:23:01;78226.13;;;-142.75;100.00
41632;BME280;37452;51.938;4.624;2023-02-01T01:25:26;78228.09;;;-142.75;100.00
41632;BME280;37452;51.938;4.624;2023-02-01T01:27:51;78228.09;;;-142.75;100.00
41632;BME280;37452;51.938;4.624;2023-02-01T01:30:16;78218.25;;;-142.75;100.00
41632;BME280;37452;51.938;4.624;2023-02-01T01:32:42;78222.19;;;-142.75;100.00
41632;BME280;37452;51.938;4.624;2023-02-01T01:35:08;78216.28;;;-142.75;100.00
41632;BME280;37452;51.938;4.624;2023-02-01T01:37:33;78208.41;;;-142.75;100.00
41632;BME280;37452;51.938;4.624;2023-02-01T01:40:00;78204.47;;;-142.75;100.00
41632;BME280;37452;51.938;4.624;2023-02-01T01:42:26;78194.63;;;-142.75;100.00
41632;BME280;37452;51.938;4.624;2023-02-01T01:45:00;78198.56;;;-142.75;100.00
41632;BME280;37452;51.938;4.624;2023-02-01T01:47:35;78202.50;;;-142.75;100.00
41632;BME280;37452;51.938;4.624;2023-02-01T01:50:05;78194.63;;;-142.75;100.00
41632;BME280;37452;51.938;4.624;2023-02-01T01:52:31;78210.38;;;-142.75;100.00
41632;BME280;37452;51.938;4.624;2023-02-01T01:54:57;78186.75;;;-142.75;100.00
41632;BME280;37452;51.938;4.624;2023-02-01T01:57:27;78194.63;;;-142.75;100.00
41632;BME280;37452;51.938;4.624;2023-02-01T02:00:12;78200.53;;;-142.75;100.00
41632;BME280;37452;51.938;4.624;2023-02-01T02:02:38;78214.31;;;-142.75;100.00
41632;BME280;37452;51.938;4.624;2023-02-01T02:05:05;78196.59;;;-142.75;100.00
41632;BME280;37452;51.938;4.624;2023-02-01T02:07:32;78202.50;;;-142.75;100.00
41632;BME280;37452;51.938;4.624;2023-02-01T02:10:00;78192.66;;;-142.75;100.00
41632;BME280;37452;51.938;4.624;2023-02-01T02:12:25;78212.34;;;-142.75;100.00
41632;BME280;37452;51.938;4.624;2023-02-01T02:14:51;78186.75;;;-142.75;100.00
41632;BME280;37452;51.938;4.624;2023-02-01T02:23:19;78176.88;;;-142.75;100.00
41632;BME280;37452;51.938;4.624;2023-02-01T02:28:47;78167.03;;;-142.75;100.00
41632;BME280;37452;51.938;4.624;2023-02-01T02:31:46;78170.97;;;-142.75;100.00
41632;BME280;37452;51.938;4.624;2023-02-01T02:39:39;78174.91;;;-142.75;100.00
41632;BME280;37452;51.938;4.624;2023-02-01T02:42:29;78176.88;;;-142.75;100.00
41632;BME280;37452;51.938;4.624;2023-02-01T02:45:52;78176.88;;;-142.75;100.00
41632;BME280;37452;51.938;4.624;2023-02-01T02:48:52;78161.13;;;-142.75;100.00
41632;BME280;37452;51.938;4.624;2023-02-01T02:51:34;78176.88;;;-142.75;100.00
41632;BME280;37452;51.938;4.624;2023-02-01T02:54:27;78163.09;;;-142.75;100.00
41632;BME280;37452;51.938;4.624;2023-02-01T02:57:36;78159.16;;;-142.75;100.00
41632;BME280;37452;51.938;4.624;2023-02-01T03:00:22;78172.94;;;-142.75;100.00
41632;BME280;37452;51.938;4.624;2023-02-01T03:03:08;78161.13;;;-142.75;100.00
41632;BME280;37452;51.938;4.624;2023-02-01T03:05:52;78157.19;;;-142.75;100.00
41632;BME280;37452;51.938;4.624;2023-02-01T03:08:18;78145.38;;;-142.75;100.00
41632;BME280;37452;51.938;4.624;2023-02-01T03:23:56;78153.25;;;-142.75;100.00
41632;BME280;37452;51.938;4.624;2023-02-01T03:26:26;78143.41;;;-142.75;100.00
41632;BME280;37452;51.938;4.624;2023-02-01T03:29:05;78147.34;;;-142.75;100.00
41632;BME280;37452;51.938;4.624;2023-02-01T03:31:33;78157.19;;;-142.75;100.00
41632;BME280;37452;51.938;4.624;2023-02-01T03:33:58;78157.19;;;-142.75;100.00
41632;BME280;37452;51.938;4.624;2023-02-01T03:36:31;78172.94;;;-142.75;100.00
41632;BME280;37452;51.938;4.624;2023-02-01T03:39:07;78178.84;;;-142.75;100.00
41632;BME280;37452;51.938;4.624;2023-02-01T03:47:03;78178.84;;;-142.75;100.00
41632;BME280;37452;51.938;4.624;2023-02-01T03:49:36;78176.88;;;-142.75;100.00
41632;BME280;37452;51.938;4.624;2023-02-01T03:52:02;78157.19;;;-142.75;100.00
41632;BME280;37452;51.938;4.624;2023-02-01T03:54:29;78161.13;;;-142.75;100.00
41632;BME280;37452;51.938;4.624;2023-02-01T03:56:57;78161.13;;;-142.75;100.00
41632;BME280;37452;51.938;4.624;2023-02-01T03:59:24;78161.13;;;-142.75;100.00
41632;BME280;37452;51.938;4.624;2023-02-01T04:01:49;78165.06;;;-142.75;100.00
41632;BME280;37452;51.938;4.624;2023-02-01T04:04:14;78190.69;;;-142.75;100.00
41632;BME280;37452;51.938;4.624;2023-02-01T04:06:46;78188.72;;;-142.75;100.00
41632;BME280;37452;51.938;4.624;2023-02-01T04:09:11;78180.81;;;-142.75;100.00
41632;BME280;37452;51.938;4.624;2023-02-01T04:11:36;78184.78;;;-142.75;100.00
41632;BME280;37452;51.938;4.624;2023-02-01T04:14:01;78178.84;;;-142.75;100.00
41632;BME280;37452;51.938;4.624;2023-02-01T04:16:30;78176.88;;;-142.75;100.00
41632;BME280;37452;51.938;4.624;2023-02-01T04:18:55;78194.63;;;-142.75;100.00
41632;BME280;37452;51.938;4.624;2023-02-01T04:21:20;78182.81;;;-142.75;100.00
41632;BME280;37452;51.938;4.624;2023-02-01T04:23:46;78200.53;;;-142.75;100.00
41632;BME280;37452;51.938;4.624;2023-02-01T04:26:11;78190.69;;;-142.75;100.00
41632;BME280;37452;51.938;4.624;2023-02-01T04:28:36;78184.78;;;-142.75;100.00
41632;BME280;37452;51.938;4.624;2023-02-01T04:31:01;78176.88;;;-142.75;100.00
41632;BME280;37452;51.938;4.624;2023-02-01T04:33:27;78178.84;;;-142.75;100.00
41632;BME280;37452;51.938;4.624;2023-02-01T04:35:52;78165.06;;;-142.75;100.00
41632;BME280;37452;51.938;4.624;2023-02-01T04:38:17;78176.88;;;-142.75;100.00
41632;BME280;37452;51.938;4.624;2023-02-01T04:40:43;78165.06;;;-142.75;100.00
41632;BME280;37452;51.938;4.624;2023-02-01T04:43:08;78180.81;;;-142.75;100.00
41632;BME280;37452;51.938;4.624;2023-02-01T04:45:33;78163.09;;;-142.75;100.00
41632;BME280;37452;51.938;4.624;2023-02-01T04:47:58;78161.13;;;-142.75;100.00
41632;BME280;37452;51.938;4.624;2023-02-01T04:50:24;78159.16;;;-142.75;100.00
41632;BME280;37452;51.938;4.624;2023-02-01T04:52:49;78151.28;;;-142.75;100.00
41632;BME280;37452;51.938;4.624;2023-02-01T04:55:15;78147.34;;;-142.75;100.00
41632;BME280;37452;51.938;4.624;2023-02-01T04:57:40;78151.28;;;-142.75;100.00
41632;BME280;37452;51.938;4.624;2023-02-01T05:00:09;78147.34;;;-142.75;100.00
41632;BME280;37452;51.938;4.624;2023-02-01T05:02:35;78161.13;;;-142.75;100.00
41632;BME280;37452;51.938;4.624;2023-02-01T05:05:00;78151.28;;;-142.75;100.00
41632;BME280;37452;51.938;4.624;2023-02-01T05:07:26;78141.44;;;-142.75;100.00
41632;BME280;37452;51.938;4.624;2023-02-01T05:09:51;78147.34;;;-142.75;100.00
41632;BME280;37452;51.938;4.624;2023-02-01T05:12:16;78153.25;;;-142.75;100.00
41632;BME280;37452;51.938;4.624;2023-02-01T05:15:00;78157.19;;;-142.75;100.00
41632;BME280;37452;51.938;4.624;2023-02-01T05:17:25;78155.22;;;-142.75;100.00
41632;BME280;37452;51.938;4.624;2023-02-01T05:19:50;78172.94;;;-142.75;100.00
41632;BME280;37452;51.938;4.624;2023-02-01T05:22:16;78167.03;;;-142.75;100.00
41632;BME280;37452;51.938;4.624;2023-02-01T05:24:41;78174.91;;;-142.75;100.00
41632;BME280;37452;51.938;4.624;2023-02-01T05:27:06;78176.88;;;-142.75;100.00
41632;BME280;37452;51.938;4.624;2023-02-01T05:29:32;78182.81;;;-142.75;100.00
41632;BME280;37452;51.938;4.624;2023-02-01T05:31:57;78184.78;;;-142.75;100.00
41632;BME280;37452;51.938;4.624;2023-02-01T05:34:22;78198.56;;;-142.75;100.00
41632;BME280;37452;51.938;4.624;2023-02-01T05:36:47;78194.63;;;-142.75;100.00
41632;BME280;37452;51.938;4.624;2023-02-01T05:39:13;78204.47;;;-142.75;100.00
41632;BME280;37452;51.938;4.624;2023-02-01T05:41:38;78192.66;;;-142.75;100.00
41632;BME280;37452;51.938;4.624;2023-02-01T05:44:04;78192.66;;;-142.75;100.00
41632;BME280;37452;51.938;4.624;2023-02-01T05:46:30;78200.53;;;-142.75;100.00
41632;BME280;37452;51.938;4.624;2023-02-01T05:48:55;78200.53;;;-142.75;100.00
41632;BME280;37452;51.938;4.624;2023-02-01T05:51:20;78188.72;;;-142.75;100.00
41632;BME280;37452;51.938;4.624;2023-02-01T05:53:46;78188.72;;;-142.75;100.00
41632;BME280;37452;51.938;4.624;2023-02-01T05:56:11;78180.81;;;-142.75;100.00
41632;BME280;37452;51.938;4.624;2023-02-01T05:58:36;78186.75;;;-142.75;100.00
41632;BME280;37452;51.938;4.624;2023-02-01T06:01:03;78180.81;;;-142.75;100.00
41632;BME280;37452;51.938;4.624;2023-02-01T06:03:28;78186.75;;;-142.75;100.00
41632;BME280;37452;51.938;4.624;2023-02-01T06:05:54;78184.78;;;-142.75;100.00
41632;BME280;37452;51.938;4.624;2023-02-01T06:08:19;78210.38;;;-142.75;100.00
41632;BME280;37452;51.938;4.624;2023-02-01T06:10:44;78200.53;;;-142.75;100.00
41632;BME280;37452;51.938;4.624;2023-02-01T06:13:10;78206.44;;;-142.75;100.00
41632;BME280;37452;51.938;4.624;2023-02-01T06:15:35;78208.41;;;-142.75;100.00
41632;BME280;37452;51.938;4.624;2023-02-01T06:18:03;78206.44;;;-142.75;100.00
41632;BME280;37452;51.938;4.624;2023-02-01T06:20:28;78204.47;;;-142.75;100.00
41632;BME280;37452;51.938;4.624;2023-02-01T06:22:53;78208.41;;;-142.75;100.00
41632;BME280;37452;51.938;4.624;2023-02-01T06:25:18;78202.50;;;-142.75;100.00
41632;BME280;37452;51.938;4.624;2023-02-01T06:27:44;78212.34;;;-142.75;100.00
41632;BME280;37452;51.938;4.624;2023-02-01T06:30:10;78200.53;;;-142.75;100.00
41632;BME280;37452;51.938;4.624;2023-02-01T06:32:35;78208.41;;;-142.75;100.00
41632;BME280;37452;51.938;4.624;2023-02-01T06:35:01;78206.44;;;-142.75;100.00
41632;BME280;37452;51.938;4.624;2023-02-01T06:37:26;78216.28;;;-142.75;100.00
41632;BME280;37452;51.938;4.624;2023-02-01T06:39:54;78208.41;;;-142.75;100.00
41632;BME280;37452;51.938;4.624;2023-02-01T06:42:19;78204.47;;;-142.75;100.00
41632;BME280;37452;51.938;4.624;2023-02-01T06:44:45;78210.38;;;-142.75;100.00
41632;BME280;37452;51.938;4.624;2023-02-01T06:47:10;78212.34;;;-142.75;100.00
41632;BME280;37452;51.938;4.624;2023-02-01T06:49:35;78200.53;;;-142.75;100.00
41632;BME280;37452;51.938;4.624;2023-02-01T06:52:01;78204.47;;;-142.75;100.00
41632;BME280;37452;51.938;4.624;2023-02-01T06:54:27;78198.56;;;-142.75;100.00
41632;BME280;37452;51.938;4.624;2023-02-01T06:56:52;78188.72;;;-142.75;100.00
41632;BME280;37452;51.938;4.624;2023-02-01T06:59:17;78196.59;;;-142.75;100.00
41632;BME280;37452;51.938;4.624;2023-02-01T07:01:43;78196.59;;;-142.75;100.00
41632;BME280;37452;51.938;4.624;2023-02-01T07:04:10;78204.47;;;-142.75;100.00
41632;BME280;37452;51.938;4.624;2023-02-01T07:06:36;78204.47;;;-142.75;100.00
41632;BME280;37452;51.938;4.624;2023-02-01T07:09:02;78202.50;;;-142.75;100.00
41632;BME280;37452;51.938;4.624;2023-02-01T07:11:27;78184.78;;;-142.75;100.00
41632;BME280;37452;51.938;4.624;2023-02-01T07:13:53;78196.59;;;-142.75;100.00
41632;BME280;37452;51.938;4.624;2023-02-01T07:16:19;78196.59;;;-142.75;100.00
41632;BME280;37452;51.938;4.624;2023-02-01T07:18:45;78188.72;;;-142.75;100.00
41632;BME280;37452;51.938;4.624;2023-02-01T07:21:10;78180.81;;;-142.75;100.00
41632;BME280;37452;51.938;4.624;2023-02-01T07:23:37;78192.66;;;-142.75;100.00
41632;BME280;37452;51.938;4.624;2023-02-01T07:26:05;78188.72;;;-142.75;100.00
41632;BME280;37452;51.938;4.624;2023-02-01T07:28:32;78194.63;;;-142.75;100.00
41632;BME280;37452;51.938;4.624;2023-02-01T07:31:08;78192.66;;;-142.75;100.00
41632;BME280;37452;51.938;4.624;2023-02-01T07:33:34;78178.84;;;-142.75;100.00
41632;BME280;37452;51.938;4.624;2023-02-01T07:36:04;78196.59;;;-142.75;100.00
41632;BME280;37452;51.938;4.624;2023-02-01T07:38:31;78192.66;;;-142.75;100.00
41632;BME280;37452;51.938;4.624;2023-02-01T07:41:00;78190.69;;;-142.75;100.00
41632;BME280;37452;51.938;4.624;2023-02-01T07:43:26;78208.41;;;-142.75;100.00
41632;BME280;37452;51.938;4.624;2023-02-01T07:45:52;78222.19;;;-142.75;100.00
41632;BME280;37452;51.938;4.624;2023-02-01T07:48:17;78202.50;;;-142.75;100.00
41632;BME280;37452;51.938;4.624;2023-02-01T07:50:43;78212.34;;;-142.75;100.00
41632;BME280;37452;51.938;4.624;2023-02-01T07:53:08;78212.34;;;-142.75;100.00
41632;BME280;37452;51.938;4.624;2023-02-01T07:55:33;78212.34;;;-142.75;100.00
41632;BME280;37452;51.938;4.624;2023-02-01T07:57:59;78220.22;;;-142.75;100.00
41632;BME280;37452;51.938;4.624;2023-02-01T08:00:25;78204.47;;;-142.75;100.00
41632;BME280;37452;51.938;4.624;2023-02-01T08:03:09;78204.47;;;-142.75;100.00
41632;BME280;37452;51.938;4.624;2023-02-01T08:05:34;78186.75;;;-142.75;100.00
41632;BME280;37452;51.938;4.624;2023-02-01T08:08:01;78188.72;;;-142.75;100.00
41632;BME280;37452;51.938;4.624;2023-02-01T08:10:27;78188.72;;;-142.75;100.00
41632;BME280;37452;51.938;4.624;2023-02-01T08:12:58;78186.75;;;-142.75;100.00
41632;BME280;37452;51.938;4.624;2023-02-01T08:15:24;78176.88;;;-142.75;100.00
41632;BME280;37452;51.938;4.624;2023-02-01T08:17:52;78161.13;;;-142.75;100.00
41632;BME280;37452;51.938;4.624;2023-02-01T08:20:18;78133.56;;;-142.75;100.00
41632;BME280;37452;51.938;4.624;2023-02-01T08:22:44;78109.94;;;-142.75;100.00
41632;BME280;37452;51.938;4.624;2023-02-01T08:25:09;78078.44;;;-142.75;100.00
41632;BME280;37452;51.938;4.624;2023-02-01T08:27:36;78096.16;;;-142.75;100.00
41632;BME280;37452;51.938;4.624;2023-02-01T08:30:02;78080.41;;;-142.75;100.00
41632;BME280;37452;51.938;4.624;2023-02-01T08:32:28;78054.81;;;-142.75;100.00
41632;BME280;37452;51.938;4.624;2023-02-01T08:34:53;78042.97;;;-142.75;100.00
41632;BME280;37452;51.938;4.624;2023-02-01T08:37:18;78046.91;;;-142.75;100.00
41632;BME280;37452;51.938;4.624;2023-02-01T08:39:43;78052.81;;;-142.75;100.00
41632;BME280;37452;51.938;4.624;2023-02-01T08:42:09;78054.81;;;-142.75;100.00
41632;BME280;37452;51.938;4.624;2023-02-01T08:44:53;78074.50;;;-142.75;100.00
41632;BME280;37452;51.938;4.624;2023-02-01T08:47:18;78070.56;;;-142.75;100.00
41632;BME280;37452;51.938;4.624;2023-02-01T08:49:43;78056.78;;;-142.75;100.00
41632;BME280;37452;51.938;4.624;2023-02-01T08:52:09;78050.84;;;-142.75;100.00
41632;BME280;37452;51.938;4.624;2023-02-01T08:54:34;78064.66;;;-142.75;100.00
41632;BME280;37452;51.938;4.624;2023-02-01T08:56:59;78031.16;;;-142.75;100.00
41632;BME280;37452;51.938;4.624;2023-02-01T08:59:24;77999.66;;;-142.75;100.00
41632;BME280;37452;51.938;4.624;2023-02-01T09:01:50;77972.09;;;-142.75;100.00
41632;BME280;37452;51.938;4.624;2023-02-01T09:04:15;77997.69;;;-142.75;100.00
41632;BME280;37452;51.938;4.624;2023-02-01T09:06:41;78009.50;;;-142.75;100.00
41632;BME280;37452;51.938;4.624;2023-02-01T09:09:06;77962.25;;;-142.75;100.00
41632;BME280;37452;51.938;4.624;2023-02-01T09:11:31;77960.28;;;-142.75;100.00
41632;BME280;37452;51.938;4.624;2023-02-01T09:13:57;77936.66;;;-142.75;100.00
41632;BME280;37452;51.938;4.624;2023-02-01T09:16:22;77932.72;;;-142.75;100.00
41632;BME280;37452;51.938;4.624;2023-02-01T09:18:48;77928.78;;;-142.75;100.00
41632;BME280;37452;51.938;4.624;2023-02-01T09:21:13;77938.63;;;-142.75;100.00
41632;BME280;37452;51.938;4.624;2023-02-01T09:23:38;77948.47;;;-142.75;100.00
41632;BME280;37452;51.938;4.624;2023-02-01T09:26:04;77970.13;;;-142.75;100.00
41632;BME280;37452;51.938;4.624;2023-02-01T09:28:30;77944.53;;;-142.75;100.00
41632;BME280;37452;51.938;4.624;2023-02-01T09:30:56;77958.31;;;-142.75;100.00
41632;BME280;37452;51.938;4.624;2023-02-01T09:33:22;77966.19;;;-142.75;100.00
41632;BME280;37452;51.938;4.624;2023-02-01T09:35:49;77983.91;;;-142.75;100.00
41632;BME280;37452;51.938;4.624;2023-02-01T09:38:14;77954.38;;;-142.75;100.00
41632;BME280;37452;51.938;4.624;2023-02-01T09:40:42;77940.59;;;-142.75;100.00
41632;BME280;37452;51.938;4.624;2023-02-01T09:43:15;77960.28;;;-142.75;100.00
41632;BME280;37452;51.938;4.624;2023-02-01T09:46:07;77972.09;;;-142.75;100.00
41632;BME280;37452;51.938;4.624;2023-02-01T09:48:39;77983.91;;;-142.75;100.00
41632;BME280;37452;51.938;4.624;2023-02-01T09:51:15;78003.59;;;-142.75;100.00
41632;BME280;37452;51.938;4.624;2023-02-01T09:53:43;78003.59;;;-142.75;100.00
41632;BME280;37452;51.938;4.624;2023-02-01T09:56:23;77997.69;;;-142.75;100.00
41632;BME280;37452;51.938;4.624;2023-02-01T10:01:34;78039.03;;;-142.75;100.00
41632;BME280;37452;51.938;4.624;2023-02-01T10:04:03;78031.16;;;-142.75;100.00
41632;BME280;37452;51.938;4.624;2023-02-01T10:09:32;78054.81;;;-142.75;100.00
41632;BME280;37452;51.938;4.624;2023-02-01T10:17:37;78050.84;;;-142.75;100.00
41632;BME280;37452;51.938;4.624;2023-02-01T10:25:51;78058.72;;;-142.75;100.00
41632;BME280;37452;51.938;4.624;2023-02-01T10:28:18;78074.50;;;-142.75;100.00
41632;BME280;37452;51.938;4.624;2023-02-01T10:30:47;78062.69;;;-142.75;100.00
41632;BME280;37452;51.938;4.624;2023-02-01T10:35:55;78042.97;;;-142.75;100.00
41632;BME280;37452;51.938;4.624;2023-02-01T10:38:29;78031.16;;;-142.75;100.00
41632;BME280;37452;51.938;4.624;2023-02-01T10:40:58;78027.22;;;-142.75;100.00
41632;BME280;37452;51.938;4.624;2023-02-01T10:43:27;78015.41;;;-142.75;100.00
41632;BME280;37452;51.938;4.624;2023-02-01T10:45:52;78029.19;;;-142.75;100.00
41632;BME280;37452;51.938;4.624;2023-02-01T10:48:18;78035.09;;;-142.75;100.00
41632;BME280;37452;51.938;4.624;2023-02-01T10:50:49;77995.72;;;-142.75;100.00
41632;BME280;37452;51.938;4.624;2023-02-01T10:53:17;78009.50;;;-142.75;100.00
41632;BME280;37452;51.938;4.624;2023-02-01T10:55:49;77989.81;;;-142.75;100.00
41632;BME280;37452;51.938;4.624;2023-02-01T10:58:20;77979.97;;;-142.75;100.00
41632;BME280;37452;51.938;4.624;2023-02-01T11:00:49;77958.31;;;-142.75;100.00
41632;BME280;37452;51.938;4.624;2023-02-01T11:03:34;77976.03;;;-142.75;100.00
41632;BME280;37452;51.938;4.624;2023-02-01T11:06:01;77976.03;;;-142.75;100.00
41632;BME280;37452;51.938;4.624;2023-02-01T11:08:28;77987.84;;;-142.75;100.00
41632;BME280;37452;51.938;4.624;2023-02-01T11:11:00;77979.97;;;-142.75;100.00
41632;BME280;37452;51.938;4.624;2023-02-01T11:13:31;77987.84;;;-142.75;100.00
41632;BME280;37452;51.938;4.624;2023-02-01T11:16:01;77976.03;;;-142.75;100.00
41632;BME280;37452;51.938;4.624;2023-02-01T11:18:29;77974.06;;;-142.75;100.00
41632;BME280;37452;51.938;4.624;2023-02-01T11:20:55;77979.97;;;-142.75;100.00
41632;BME280;37452;51.938;4.624;2023-02-01T11:23:21;77976.03;;;-142.75;100.00
41632;BME280;37452;51.938;4.624;2023-02-01T11:25:59;77985.88;;;-142.75;100.00
41632;BME280;37452;51.938;4.624;2023-02-01T11:28:31;77987.84;;;-142.75;100.00
41632;BME280;37452;51.938;4.624;2023-02-01T11:31:00;77974.06;;;-142.75;100.00
41632;BME280;37452;51.938;4.624;2023-02-01T11:33:30;77974.06;;;-142.75;100.00
41632;BME280;37452;51.938;4.624;2023-02-01T11:36:00;77952.41;;;-142.75;100.00
41632;BME280;37452;51.938;4.624;2023-02-01T11:38:31;77960.28;;;-142.75;100.00
41632;BME280;37452;51.938;4.624;2023-02-01T11:41:27;77960.28;;;-142.75;100.00
41632;BME280;37452;51.938;4.624;2023-02-01T11:43:58;77960.28;;;-142.75;100.00
41632;BME280;37452;51.938;4.624;2023-02-01T11:46:34;77950.44;;;-142.75;100.00
41632;BME280;37452;51.938;4.624;2023-02-01T11:49:23;77936.66;;;-142.75;100.00
41632;BME280;37452;51.938;4.624;2023-02-01T11:54:50;77944.53;;;-142.75;100.00
41632;BME280;37452;51.938;4.624;2023-02-01T11:58:12;77930.75;;;-142.75;100.00
41632;BME280;37452;51.938;4.624;2023-02-01T12:05:59;77968.16;;;-142.75;100.00
41632;BME280;37452;51.938;4.624;2023-02-01T12:14:05;77954.38;;;-142.75;100.00
41632;BME280;37452;51.938;4.624;2023-02-01T12:16:44;77940.59;;;-142.75;100.00
41632;BME280;37452;51.938;4.624;2023-02-01T12:22:54;77936.66;;;-142.75;100.00
41632;BME280;37452;51.938;4.624;2023-02-01T12:25:30;77936.66;;;-142.75;100.00
41632;BME280;37452;51.938;4.624;2023-02-01T12:30:49;77952.41;;;-142.75;100.00
41632;BME280;37452;51.938;4.624;2023-02-01T12:36:03;77940.59;;;-142.75;100.00
41632;BME280;37452;51.938;4.624;2023-02-01T12:44:00;77838.19;;;-142.75;100.00
41632;BME280;37452;51.938;4.624;2023-02-01T12:46:37;77877.56;;;-142.75;100.00
41632;BME280;37452;51.938;4.624;2023-02-01T12:49:31;77875.59;;;-142.75;100.00
41632;BME280;37452;51.938;4.624;2023-02-01T12:52:02;77909.06;;;-142.75;100.00
41632;BME280;37452;51.938;4.624;2023-02-01T12:54:41;77915.00;;;-142.75;100.00
41632;BME280;37452;51.938;4.624;2023-02-01T12:57:30;77915.00;;;-142.75;100.00
41632;BME280;37452;51.938;4.624;2023-02-01T13:02:28;77913.03;;;-142.75;100.00
41632;BME280;37452;51.938;4.624;2023-02-01T13:05:04;77915.00;;;-142.75;100.00
41632;BME280;37452;51.938;4.624;2023-02-01T13:07:45;77895.28;;;-142.75;100.00
41632;BME280;37452;51.938;4.624;2023-02-01T13:13:08;77905.13;;;-142.75;100.00
41632;BME280;37452;51.938;4.624;2023-02-01T13:15:44;77897.25;;;-142.75;100.00
41632;BME280;37452;51.938;4.624;2023-02-01T13:18:18;77916.97;;;-142.75;100.00
41632;BME280;37452;51.938;4.624;2023-02-01T13:20:55;77909.06;;;-142.75;100.00
41632;BME280;37452;51.938;4.624;2023-02-01T13:23:31;77911.06;;;-142.75;100.00
41632;BME280;37452;51.938;4.624;2023-02-01T13:25:58;77899.22;;;-142.75;100.00
41632;BME280;37452;51.938;4.624;2023-02-01T13:28:49;77918.94;;;-142.75;100.00
41632;BME280;37452;51.938;4.624;2023-02-01T13:39:51;77932.72;;;-142.75;100.00
41632;BME280;37452;51.938;4.624;2023-02-01T13:42:47;77920.91;;;-142.75;100.00
41632;BME280;37452;51.938;4.624;2023-02-01T13:45:18;77922.88;;;-142.75;100.00
41632;BME280;37452;51.938;4.624;2023-02-01T13:47:46;77944.53;;;-142.75;100.00
41632;BME280;37452;51.938;4.624;2023-02-01T13:50:34;77930.75;;;-142.75;100.00
41632;BME280;37452;51.938;4.624;2023-02-01T13:53:16;77918.94;;;-142.75;100.00
41632;BME280;37452;51.938;4.624;2023-02-01T13:55:44;77936.66;;;-142.75;100.00
41632;BME280;37452;51.938;4.624;2023-02-01T13:58:30;77932.72;;;-142.75;100.00
41632;BME280;37452;51.938;4.624;2023-02-01T14:01:32;77942.56;;;-142.75;100.00
41632;BME280;37452;51.938;4.624;2023-02-01T14:04:00;77928.78;;;-142.75;100.00
41632;BME280;37452;51.938;4.624;2023-02-01T14:24:30;77918.94;;;-142.75;100.00
41632;BME280;37452;51.938;4.624;2023-02-01T14:27:20;77915.00;;;-142.75;100.00
41632;BME280;37452;51.938;4.624;2023-02-01T14:29:50;77928.78;;;-142.75;100.00
41632;BME280;37452;51.938;4.624;2023-02-01T14:32:24;77924.84;;;-142.75;100.00
41632;BME280;37452;51.938;4.624;2023-02-01T14:34:55;77920.91;;;-142.75;100.00
41632;BME280;37452;51.938;4.624;2023-02-01T14:37:28;77915.00;;;-142.75;100.00